createdAt,value
2018-11-06T00:01:51.002Z,96.91
2018-11-06T00:04:19.562Z,97.07
2018-11-06T00:06:48.802Z,97.24
2018-11-06T00:09:17.308Z,97.01
2018-11-06T00:11:45.955Z,96.89
2018-11-06T00:14:14.411Z,97.41
2018-11-06T00:16:42.950Z,97.27
2018-11-06T00:19:11.679Z,97.31
2018-11-06T00:21:40.266Z,97.47
2018-11-06T00:24:09.423Z,97.56
2018-11-06T00:26:37.910Z,97.47
2018-11-06T00:29:06.720Z,97.35
2018-11-06T00:31:35.376Z,97.31
2018-11-06T00:34:03.935Z,97.23
2018-11-06T00:36:32.418Z,97.47
2018-11-06T00:39:00.895Z,97.67
2018-11-06T00:41:29.906Z,97.67
2018-11-06T00:43:58.426Z,98.17
2018-11-06T00:46:27.043Z,98.11
2018-11-06T00:48:55.531Z,97.83
2018-11-06T00:51:24.063Z,97.78
2018-11-06T00:53:52.820Z,97.72
2018-11-06T00:56:21.403Z,97.76
2018-11-06T00:58:51.097Z,97.70
2018-11-06T01:01:19.680Z,98.13
2018-11-06T01:03:49.798Z,98.03
2018-11-06T01:06:18.483Z,98.01
2018-11-06T01:08:47.559Z,98.19
2018-11-06T01:11:16.339Z,97.85
2018-11-06T01:13:45.376Z,98.28
2018-11-06T01:16:13.956Z,98.10
2018-11-06T01:18:42.592Z,98.29
2018-11-06T01:21:11.590Z,98.21
2018-11-06T01:23:40.114Z,98.20
2018-11-06T01:26:09.004Z,97.90
2018-11-06T01:28:37.484Z,98.09
2018-11-06T01:31:06.516Z,97.99
2018-11-06T01:33:35.002Z,97.90
2018-11-06T01:36:03.752Z,97.79
2018-11-06T01:38:32.294Z,97.85
2018-11-06T01:41:01.019Z,98.13
2018-11-06T01:43:29.526Z,97.83
2018-11-06T01:45:58.030Z,98.17
2018-11-06T01:48:26.919Z,97.88
2018-11-06T01:50:55.388Z,97.98
2018-11-06T01:53:24.342Z,97.95
2018-11-06T01:55:52.919Z,98.20
2018-11-06T01:58:21.702Z,98.14
2018-11-06T02:00:50.185Z,98.31
2018-11-06T02:03:18.844Z,98.21
2018-11-06T02:05:47.455Z,97.97
2018-11-06T02:08:16.043Z,98.22
2018-11-06T02:10:44.986Z,98.42
2018-11-06T02:13:13.453Z,98.13
2018-11-06T02:15:42.413Z,97.99
2018-11-06T02:18:10.985Z,98.19
2018-11-06T02:20:39.506Z,98.26
2018-11-06T02:23:08.066Z,98.09
2018-11-06T02:25:36.538Z,98.20
2018-11-06T02:28:05.555Z,98.23
2018-11-06T02:30:34.011Z,98.15
2018-11-06T02:33:02.702Z,98.11
2018-11-06T02:35:31.170Z,98.28
2018-11-06T02:37:59.698Z,98.26
2018-11-06T02:40:28.174Z,98.28
2018-11-06T02:42:56.626Z,98.37
2018-11-06T02:45:25.195Z,98.28
2018-11-06T02:47:53.699Z,98.49
2018-11-06T02:50:23.019Z,98.40
2018-11-06T02:52:51.494Z,98.47
2018-11-06T02:55:20.674Z,98.42
2018-11-06T02:57:49.171Z,98.50
2018-11-06T03:00:18.593Z,98.33
2018-11-06T03:02:48.037Z,98.25
2018-11-06T03:05:16.620Z,98.19
2018-11-06T03:07:45.121Z,98.62
2018-11-06T03:10:14.502Z,98.09
2018-11-06T03:12:43.645Z,97.99
2018-11-06T03:15:13.475Z,97.93
2018-11-06T03:17:42.175Z,97.76
2018-11-06T03:20:11.538Z,97.94
2018-11-06T03:22:41.055Z,97.83
2018-11-06T03:25:09.579Z,97.94
2018-11-06T03:27:38.273Z,98.14
2018-11-06T03:30:09.150Z,98.30
2018-11-06T03:32:38.506Z,98.38
2018-11-06T03:35:07.499Z,98.53
2018-11-06T03:37:36.146Z,98.28
2018-11-06T03:40:05.074Z,98.01
2018-11-06T03:42:34.098Z,98.09
2018-11-06T03:45:02.575Z,97.87
2018-11-06T03:47:31.247Z,97.98
2018-11-06T03:49:59.759Z,97.83
2018-11-06T03:52:28.362Z,97.69
2018-11-06T03:54:57.384Z,97.95
2018-11-06T03:57:25.974Z,97.75
2018-11-06T03:59:54.903Z,97.57
2018-11-06T04:02:23.478Z,97.38
2018-11-06T04:04:52.653Z,97.45
2018-11-06T04:07:21.123Z,97.53
2018-11-06T04:09:49.774Z,97.48
2018-11-06T04:12:18.315Z,97.42
2018-11-06T04:14:46.859Z,97.21
2018-11-06T04:17:15.778Z,97.34
2018-11-06T04:19:44.270Z,97.39
2018-11-06T04:22:13.123Z,97.20
2018-11-06T04:24:41.654Z,97.34
2018-11-06T04:27:10.514Z,97.50
2018-11-06T04:29:39.214Z,97.47
2018-11-06T04:32:07.735Z,97.37
2018-11-06T04:34:36.340Z,97.41
2018-11-06T04:37:04.826Z,97.33
2018-11-06T04:39:33.938Z,97.27
2018-11-06T04:42:02.458Z,97.32
2018-11-06T04:44:31.226Z,97.17
2018-11-06T04:46:59.884Z,97.07
2018-11-06T04:49:28.433Z,97.05
2018-11-06T04:51:57.070Z,97.08
2018-11-06T04:54:25.632Z,97.12
2018-11-06T04:56:54.618Z,97.01
2018-11-06T04:59:23.150Z,96.93
2018-11-06T05:01:52.280Z,96.93
2018-11-06T05:04:20.882Z,96.96
2018-11-06T05:06:49.468Z,97.03
2018-11-06T05:09:18.055Z,97.15
2018-11-06T05:11:46.575Z,97.00
2018-11-06T05:14:15.313Z,96.88
2018-11-06T05:16:43.775Z,96.97
2018-11-06T05:19:12.684Z,96.80
2018-11-06T05:21:41.182Z,96.80
2018-11-06T05:24:09.992Z,96.98
2018-11-06T05:26:38.643Z,96.79
2018-11-06T05:29:07.296Z,96.81
2018-11-06T05:31:35.835Z,96.66
2018-11-06T05:34:04.455Z,96.69
2018-11-06T05:36:33.125Z,96.64
2018-11-06T05:39:01.684Z,96.37
2018-11-06T05:41:30.549Z,96.56
2018-11-06T05:43:59.106Z,96.49
2018-11-06T05:46:27.790Z,96.42
2018-11-06T05:48:56.267Z,96.32
2018-11-06T05:51:25.011Z,96.21
2018-11-06T05:53:53.755Z,96.39
2018-11-06T05:56:22.261Z,96.30
2018-11-06T05:58:51.149Z,96.41
2018-11-06T06:01:19.656Z,96.30
2018-11-06T06:03:48.537Z,96.05
2018-11-06T06:06:17.089Z,96.08
2018-11-06T06:08:45.702Z,96.43
2018-11-06T06:11:14.309Z,96.21
2018-11-06T06:13:42.795Z,96.03
2018-11-06T06:16:11.703Z,96.03
2018-11-06T06:18:40.262Z,96.06
2018-11-06T06:21:08.852Z,95.88
2018-11-06T06:23:37.364Z,95.82
2018-11-06T06:26:06.351Z,96.00
2018-11-06T06:28:35.005Z,95.67
2018-11-06T06:31:03.582Z,95.78
2018-11-06T06:33:32.219Z,95.73
2018-11-06T06:36:00.706Z,95.87
2018-11-06T06:38:29.548Z,95.60
2018-11-06T06:40:58.147Z,95.56
2018-11-06T06:43:26.627Z,95.81
2018-11-06T06:45:55.122Z,95.71
2018-11-06T06:48:23.678Z,95.79
2018-11-06T06:50:52.215Z,95.46
2018-11-06T06:53:20.738Z,95.52
2018-11-06T06:55:49.776Z,95.58
2018-11-06T06:58:18.281Z,95.57
2018-11-06T07:00:47.249Z,95.34
2018-11-06T07:03:15.742Z,95.41
2018-11-06T07:05:44.434Z,95.35
2018-11-06T07:08:13.263Z,95.25
2018-11-06T07:10:42.154Z,95.21
2018-11-06T07:13:11.009Z,95.21
2018-11-06T07:15:39.625Z,95.04
2018-11-06T07:18:08.494Z,94.95
2018-11-06T07:20:36.974Z,94.73
2018-11-06T07:23:06.037Z,94.72
2018-11-06T07:25:34.583Z,94.61
2018-11-06T07:28:03.678Z,94.68
2018-11-06T07:30:32.691Z,94.42
2018-11-06T07:33:01.456Z,94.21
2018-11-06T07:35:30.186Z,94.21
2018-11-06T07:37:58.738Z,93.86
2018-11-06T07:40:27.806Z,94.01
2018-11-06T07:42:56.375Z,93.77
2018-11-06T07:45:25.380Z,93.54
2018-11-06T07:47:54.012Z,93.59
2018-11-06T07:50:23.086Z,93.55
2018-11-06T07:52:51.915Z,93.89
2018-11-06T07:55:20.849Z,93.42
2018-11-06T07:57:49.643Z,93.52
2018-11-06T08:00:22.453Z,93.24
2018-11-06T08:02:51.871Z,93.19
2018-11-06T08:05:20.802Z,93.15
2018-11-06T08:07:50.098Z,93.16
2018-11-06T08:10:18.943Z,93.04
2018-11-06T08:12:48.994Z,92.90
2018-11-06T08:15:17.730Z,93.03
2018-11-06T08:17:46.575Z,93.15
2018-11-06T08:20:15.458Z,92.69
2018-11-06T08:22:44.114Z,93.02
2018-11-06T08:25:13.788Z,92.69
2018-11-06T08:27:43.237Z,92.30
2018-11-06T08:30:12.587Z,92.15
2018-11-06T08:32:41.692Z,92.30
2018-11-06T08:35:12.375Z,91.87
2018-11-06T08:37:41.162Z,92.24
2018-11-06T08:40:10.972Z,91.64
2018-11-06T08:42:39.555Z,91.16
2018-11-06T08:45:09.911Z,91.01
2018-11-06T08:47:38.890Z,91.14
2018-11-06T08:50:08.820Z,91.00
2018-11-06T08:52:37.579Z,90.92
2018-11-06T08:55:07.674Z,90.43
2018-11-06T08:57:36.447Z,90.18
2018-11-06T09:00:06.524Z,89.49
2018-11-06T09:02:35.179Z,89.54
2018-11-06T09:05:03.803Z,89.45
2018-11-06T09:07:32.643Z,89.09
2018-11-06T09:10:01.211Z,89.01
2018-11-06T09:12:29.842Z,88.72
2018-11-06T09:14:59.603Z,89.22
2018-11-06T09:17:28.333Z,88.48
2018-11-06T09:19:56.996Z,88.63
2018-11-06T09:22:25.500Z,88.71
2018-11-06T09:24:54.191Z,88.51
2018-11-06T09:27:22.815Z,88.40
2018-11-06T09:29:51.623Z,88.37
2018-11-06T09:32:20.135Z,88.00
2018-11-06T09:34:49.567Z,88.33
2018-11-06T09:37:18.085Z,88.27
2018-11-06T09:39:46.697Z,88.39
2018-11-06T09:42:15.308Z,88.29
2018-11-06T09:44:43.870Z,88.50
2018-11-06T09:47:12.773Z,87.79
2018-11-06T09:49:41.392Z,88.28
2018-11-06T09:52:10.524Z,88.06
2018-11-06T09:54:39.087Z,87.48
2018-11-06T09:57:07.715Z,87.43
2018-11-06T09:59:36.195Z,87.26
2018-11-06T10:02:04.752Z,87.48
2018-11-06T10:04:33.250Z,87.15
2018-11-06T10:07:01.969Z,87.19
2018-11-06T10:09:30.675Z,87.09
2018-11-06T10:11:59.803Z,86.46
2018-11-06T10:14:28.698Z,86.78
2018-11-06T10:16:57.218Z,86.17
2018-11-06T10:19:25.794Z,86.74
2018-11-06T10:21:54.323Z,86.38
2018-11-06T10:24:22.806Z,86.06
2018-11-06T10:26:51.910Z,85.84
2018-11-06T10:29:20.772Z,86.15
2018-11-06T10:31:49.738Z,86.11
2018-11-06T10:34:18.243Z,85.59
2018-11-06T10:36:46.995Z,86.19
2018-11-06T10:39:15.559Z,86.73
2018-11-06T10:41:44.178Z,85.73
2018-11-06T10:44:12.905Z,84.95
2018-11-06T10:46:41.411Z,85.41
2018-11-06T10:49:10.646Z,85.24
2018-11-06T10:51:39.387Z,84.93
2018-11-06T10:54:08.587Z,84.32
2018-11-06T10:56:37.679Z,84.45
2018-11-06T10:59:06.747Z,84.64
2018-11-06T11:01:40.483Z,84.37
2018-11-06T11:04:14.308Z,84.50
2018-11-06T11:06:43.262Z,83.87
2018-11-06T11:09:12.191Z,83.90
2018-11-06T11:11:41.091Z,84.02
2018-11-06T11:14:09.714Z,83.72
2018-11-06T11:16:38.631Z,83.18
2018-11-06T11:19:07.110Z,82.56
2018-11-06T11:21:35.614Z,83.31
2018-11-06T11:24:04.183Z,83.72
2018-11-06T11:26:32.675Z,82.85
2018-11-06T11:29:01.621Z,82.97
2018-11-06T11:31:30.116Z,82.29
2018-11-06T11:33:58.952Z,82.50
2018-11-06T11:36:27.447Z,82.10
2018-11-06T11:38:56.070Z,83.00
2018-11-06T11:41:24.566Z,82.52
2018-11-06T11:43:53.352Z,82.92
2018-11-06T11:46:22.119Z,82.04
2018-11-06T11:48:50.827Z,82.77
2018-11-06T11:51:19.854Z,82.26
2018-11-06T11:53:48.363Z,82.19
2018-11-06T11:56:17.243Z,81.97
2018-11-06T11:58:45.759Z,82.75
2018-11-06T12:01:14.358Z,81.55
2018-11-06T12:03:42.915Z,81.74
2018-11-06T12:06:11.431Z,82.03
2018-11-06T12:08:40.286Z,82.00
2018-11-06T12:11:08.794Z,82.16
2018-11-06T12:13:37.552Z,82.24
2018-11-06T12:16:06.262Z,82.01
2018-11-06T12:18:35.147Z,82.01
2018-11-06T12:21:03.695Z,81.07
2018-11-06T12:23:32.304Z,81.29
2018-11-06T12:26:00.999Z,81.77
2018-11-06T12:28:29.476Z,82.15
2018-11-06T12:30:58.546Z,81.26
2018-11-06T12:33:27.026Z,81.35
2018-11-06T12:35:56.034Z,81.99
2018-11-06T12:38:24.511Z,81.79
2018-11-06T12:40:53.101Z,82.15
2018-11-06T12:43:21.759Z,81.84
2018-11-06T12:45:50.318Z,81.70
2018-11-06T12:48:19.114Z,81.98
2018-11-06T12:50:47.650Z,82.47
2018-11-06T12:53:16.699Z,81.90
2018-11-06T12:55:45.170Z,82.53
2018-11-06T12:58:13.917Z,81.92
2018-11-06T13:00:42.447Z,82.45
2018-11-06T13:03:11.009Z,82.54
2018-11-06T13:05:39.635Z,82.68
2018-11-06T13:08:08.119Z,82.48
2018-11-06T13:10:37.291Z,82.66
2018-11-06T13:13:06.119Z,82.97
2018-11-06T13:15:35.078Z,82.51
2018-11-06T13:18:03.524Z,83.39
2018-11-06T13:20:32.136Z,82.70
2018-11-06T13:23:00.664Z,82.96
2018-11-06T13:25:29.222Z,83.27
2018-11-06T13:27:58.027Z,83.20
2018-11-06T13:30:26.642Z,83.58
2018-11-06T13:32:55.643Z,83.40
2018-11-06T13:35:24.196Z,83.24
2018-11-06T13:37:52.863Z,83.26
2018-11-06T13:40:21.348Z,83.25
2018-11-06T13:42:50.013Z,83.56
2018-11-06T13:45:20.912Z,83.64
2018-11-06T13:47:49.350Z,83.37
2018-11-06T13:50:17.982Z,83.51
2018-11-06T13:52:46.531Z,83.54
2018-11-06T13:55:16.031Z,83.97
2018-11-06T13:57:45.314Z,83.91
2018-11-06T14:00:16.464Z,83.78
2018-11-06T14:02:45.189Z,83.84
2018-11-06T14:05:14.515Z,83.84
2018-11-06T14:07:43.023Z,84.03
2018-11-06T14:10:12.159Z,84.05
2018-11-06T14:12:41.496Z,84.41
2018-11-06T14:15:10.551Z,84.37
2018-11-06T14:17:39.581Z,84.57
2018-11-06T14:20:13.592Z,84.52
2018-11-06T14:22:42.421Z,84.72
2018-11-06T14:25:11.065Z,84.55
2018-11-06T14:27:39.597Z,84.75
2018-11-06T14:30:12.284Z,85.09
2018-11-06T14:32:41.264Z,85.15
2018-11-06T14:35:11.435Z,85.25
2018-11-06T14:37:40.914Z,85.15
2018-11-06T14:40:10.474Z,85.36
2018-11-06T14:42:40.241Z,85.63
2018-11-06T14:45:10.322Z,85.81
2018-11-06T14:47:39.201Z,86.22
2018-11-06T14:50:08.617Z,86.66
2018-11-06T14:52:37.703Z,86.55
2018-11-06T14:55:07.538Z,87.11
2018-11-06T14:57:36.686Z,86.96
2018-11-06T15:00:06.891Z,87.19
2018-11-06T15:02:35.927Z,87.17
2018-11-06T15:05:04.622Z,87.60
2018-11-06T15:07:33.587Z,87.39
2018-11-06T15:10:02.250Z,87.45
2018-11-06T15:12:31.048Z,87.60
2018-11-06T15:14:59.820Z,87.63
2018-11-06T15:17:28.383Z,87.79
2018-11-06T15:19:57.283Z,87.67
2018-11-06T15:22:25.754Z,88.06
2018-11-06T15:24:54.797Z,87.84
2018-11-06T15:27:23.350Z,87.96
2018-11-06T15:29:52.210Z,88.01
2018-11-06T15:32:20.722Z,88.10
2018-11-06T15:34:49.347Z,88.25
2018-11-06T15:37:17.895Z,88.27
2018-11-06T15:39:46.499Z,88.31
2018-11-06T15:42:15.229Z,88.44
2018-11-06T15:44:43.727Z,88.33
2018-11-06T15:47:12.385Z,88.50
2018-11-06T15:49:41.063Z,88.47
2018-11-06T15:52:09.563Z,88.60
2018-11-06T15:54:38.196Z,88.72
2018-11-06T15:57:06.634Z,88.60
2018-11-06T15:59:35.437Z,88.71
2018-11-06T16:02:03.959Z,88.76
2018-11-06T16:04:33.014Z,88.71
2018-11-06T16:07:01.691Z,88.73
2018-11-06T16:09:30.430Z,88.72
2018-11-06T16:11:58.969Z,88.68
2018-11-06T16:14:27.493Z,88.56
2018-11-06T16:16:56.054Z,88.58
2018-11-06T16:19:24.802Z,88.61
2018-11-06T16:21:53.671Z,88.46
2018-11-06T16:24:22.177Z,88.47
2018-11-06T16:26:51.041Z,88.49
2018-11-06T16:29:19.605Z,88.51
2018-11-06T16:31:48.178Z,88.45
2018-11-06T16:34:16.735Z,88.45
2018-11-06T16:36:45.318Z,88.51
2018-11-06T16:39:13.907Z,88.62
2018-11-06T16:41:42.703Z,88.52
2018-11-06T16:44:11.498Z,88.49
2018-11-06T16:46:39.978Z,88.64
2018-11-06T16:49:08.633Z,88.85
2018-11-06T16:51:37.209Z,88.83
2018-11-06T16:54:06.153Z,88.92
2018-11-06T16:56:34.893Z,88.71
2018-11-06T16:59:03.418Z,89.03
2018-11-06T17:01:32.212Z,88.90
2018-11-06T17:04:00.750Z,88.83
2018-11-06T17:06:35.593Z,88.99
2018-11-06T17:09:05.317Z,88.84
2018-11-06T17:11:33.887Z,89.00
2018-11-06T17:14:02.494Z,89.10
2018-11-06T17:16:31.031Z,89.01
2018-11-06T17:18:59.586Z,89.23
2018-11-06T17:21:28.392Z,89.07
2018-11-06T17:23:56.895Z,89.17
2018-11-06T17:26:25.623Z,89.11
2018-11-06T17:28:54.118Z,89.07
2018-11-06T17:31:22.700Z,89.04
2018-11-06T17:33:51.371Z,89.22
2018-11-06T17:36:19.879Z,89.13
2018-11-06T17:38:48.654Z,89.37
2018-11-06T17:41:17.166Z,89.22
2018-11-06T17:43:46.023Z,89.09
2018-11-06T17:46:15.815Z,89.22
2018-11-06T17:48:44.539Z,89.27
2018-11-06T17:51:13.048Z,89.26
2018-11-06T17:53:41.547Z,88.95
2018-11-06T17:56:10.051Z,89.21
2018-11-06T17:58:38.535Z,88.94
2018-11-06T18:01:08.247Z,89.02
2018-11-06T18:03:36.815Z,88.88
2018-11-06T18:06:05.955Z,88.95
2018-11-06T18:08:34.467Z,89.18
2018-11-06T18:11:03.598Z,89.08
2018-11-06T18:13:32.228Z,88.99
2018-11-06T18:16:00.946Z,89.01
2018-11-06T18:18:31.985Z,89.22
2018-11-06T18:21:00.822Z,89.03
2018-11-06T18:23:29.467Z,88.94
2018-11-06T18:25:58.100Z,89.12
2018-11-06T18:28:26.794Z,89.29
2018-11-06T18:30:56.183Z,88.93
2018-11-06T18:33:24.896Z,89.30
2018-11-06T18:35:53.414Z,89.37
2018-11-06T18:38:23.408Z,89.25
2018-11-06T18:40:51.963Z,89.37
2018-11-06T18:43:20.956Z,89.43
2018-11-06T18:45:52.375Z,89.25
2018-11-06T18:48:21.359Z,89.60
2018-11-06T18:50:49.896Z,89.64
2018-11-06T18:53:20.028Z,89.89
2018-11-06T18:55:48.550Z,89.52
2018-11-06T18:58:17.694Z,89.72
2018-11-06T19:00:46.126Z,89.71
2018-11-06T19:03:14.963Z,89.69
2018-11-06T19:05:43.464Z,89.65
2018-11-06T19:08:12.089Z,89.87
2018-11-06T19:10:40.692Z,90.06
2018-11-06T19:13:09.191Z,90.02
2018-11-06T19:15:38.343Z,90.03
2018-11-06T19:18:06.952Z,90.16
2018-11-06T19:20:35.463Z,89.85
2018-11-06T19:23:04.015Z,90.01
2018-11-06T19:25:32.740Z,90.53
2018-11-06T19:28:01.335Z,90.41
2018-11-06T19:30:29.870Z,91.09
2018-11-06T19:32:59.064Z,90.61
2018-11-06T19:35:27.749Z,90.36
2018-11-06T19:37:56.572Z,90.65
2018-11-06T19:40:25.155Z,90.54
2018-11-06T19:42:53.754Z,90.87
2018-11-06T19:45:22.343Z,90.82
2018-11-06T19:47:51.106Z,91.11
2018-11-06T19:50:20.155Z,90.98
2018-11-06T19:52:48.899Z,90.84
2018-11-06T19:55:19.461Z,91.15
2018-11-06T19:57:48.023Z,91.46
2018-11-06T20:00:18.420Z,91.24
2018-11-06T20:02:48.292Z,91.50
2018-11-06T20:05:17.061Z,91.58
2018-11-06T20:07:46.334Z,91.68
2018-11-06T20:10:16.698Z,91.80
2018-11-06T20:12:46.326Z,91.79
2018-11-06T20:15:15.775Z,92.37
2018-11-06T20:17:45.108Z,92.07
2018-11-06T20:20:28.578Z,92.53
2018-11-06T20:22:57.223Z,92.31
2018-11-06T20:25:25.826Z,92.28
2018-11-06T20:27:54.362Z,92.29
2018-11-06T20:30:27.051Z,92.24
2018-11-06T20:32:55.812Z,92.43
2018-11-06T20:35:24.420Z,92.46
2018-11-06T20:37:53.036Z,92.97
2018-11-06T20:40:23.114Z,92.65
2018-11-06T20:42:51.890Z,92.52
2018-11-06T20:45:21.350Z,93.33
2018-11-06T20:47:49.915Z,93.36
2018-11-06T20:50:20.162Z,93.29
2018-11-06T20:52:49.126Z,93.19
2018-11-06T20:55:18.514Z,93.27
2018-11-06T20:57:47.234Z,93.29
2018-11-06T21:00:29.025Z,93.39
2018-11-06T21:02:58.999Z,93.65
2018-11-06T21:05:28.091Z,94.01
2018-11-06T21:07:56.711Z,93.70
2018-11-06T21:10:27.158Z,93.58
2018-11-06T21:12:55.726Z,93.62
2018-11-06T21:15:24.512Z,93.73
2018-11-06T21:17:53.131Z,93.88
2018-11-06T21:20:21.871Z,93.85
2018-11-06T21:22:50.363Z,93.82
2018-11-06T21:25:19.006Z,93.71
2018-11-06T21:27:47.948Z,94.04
2018-11-06T21:30:17.876Z,93.79
2018-11-06T21:32:48.079Z,93.73
2018-11-06T21:35:16.610Z,93.99
2018-11-06T21:37:45.653Z,93.73
2018-11-06T21:40:17.117Z,93.64
2018-11-06T21:42:46.091Z,94.06
2018-11-06T21:45:15.171Z,93.94
2018-11-06T21:47:44.843Z,93.99
2018-11-06T21:50:14.215Z,93.83
2018-11-06T21:52:43.038Z,94.15
2018-11-06T21:55:12.850Z,93.83
2018-11-06T21:57:41.659Z,93.84
2018-11-06T22:00:13.046Z,93.79
2018-11-06T22:02:41.622Z,93.67
2018-11-06T22:05:12.536Z,93.69
2018-11-06T22:07:41.654Z,93.38
2018-11-06T22:10:12.791Z,93.72
2018-11-06T22:12:42.241Z,93.64
2018-11-06T22:15:11.818Z,93.45
2018-11-06T22:17:40.757Z,93.54
2018-11-06T22:20:11.532Z,93.25
2018-11-06T22:22:40.572Z,93.52
2018-11-06T22:25:09.624Z,93.33
2018-11-06T22:27:38.284Z,93.50
2018-11-06T22:30:08.863Z,93.44
2018-11-06T22:32:37.414Z,93.34
2018-11-06T22:35:07.570Z,93.44
2018-11-06T22:37:36.068Z,93.61
2018-11-06T22:40:04.843Z,93.36
2018-11-06T22:42:33.335Z,93.36
2018-11-06T22:45:01.859Z,93.25
2018-11-06T22:47:30.647Z,93.30
2018-11-06T22:49:59.236Z,93.24
2018-11-06T22:52:28.059Z,92.96
2018-11-06T22:54:56.606Z,93.25
2018-11-06T22:57:25.183Z,93.05
2018-11-06T22:59:53.686Z,93.21
2018-11-06T23:02:22.216Z,93.08
2018-11-06T23:04:51.040Z,93.01
2018-11-06T23:07:24.923Z,92.93
2018-11-06T23:09:53.398Z,93.26
2018-11-06T23:12:22.144Z,93.17
2018-11-06T23:14:50.696Z,93.32
2018-11-06T23:17:19.223Z,92.99
2018-11-06T23:19:48.033Z,93.03
2018-11-06T23:22:16.650Z,93.15
2018-11-06T23:24:45.693Z,93.01
2018-11-06T23:27:14.153Z,92.95
2018-11-06T23:29:42.831Z,93.02
2018-11-06T23:32:11.342Z,93.17
2018-11-06T23:34:39.894Z,93.15
2018-11-06T23:37:08.422Z,93.04
2018-11-06T23:39:37.007Z,93.15
2018-11-06T23:42:06.083Z,93.14
2018-11-06T23:44:34.555Z,93.25
2018-11-06T23:47:03.546Z,93.33
2018-11-06T23:49:32.040Z,93.20
2018-11-06T23:52:00.580Z,93.15
2018-11-06T23:54:29.094Z,93.15
2018-11-06T23:56:57.690Z,93.14
2018-11-06T23:59:26.725Z,93.09
